Time;durP1;ratioP1;P1;durP2;ratioP2;P2;SDS_P1;SDS_P2;PMS_P1;PMS_P2;Temp;Humidity;BMP_temperature;BMP_pressure;BME280_temperature;BME280_humidity;BME280_pressure;Samples;Min_cycle;Max_cycle;Signal;HPM_P1;HPM_P2
2024/01/23 00:01:43;;;;;;;9.00;2.10;;;;;;;;;;5076909;28;20206;-77
2024/01/23 00:04:10;;;;;;;6.53;2.03;;;;;;;;;;5066863;28;20285;-76
2024/01/23 00:06:36;;;;;;;5.43;1.80;;;;;;;;;;5072649;28;20617;-77
2024/01/23 00:09:02;;;;;;;4.37;2.40;;;;;;;;;;5072138;28;20285;-78
2024/01/23 00:11:28;;;;;;;5.20;1.77;;;;;;;;;;5070409;28;20203;-76
2024/01/23 00:13:54;;;;;;;3.70;1.63;;;;;;;;;;5071953;28;20711;-78
2024/01/23 00:16:20;;;;;;;4.23;1.80;;;;;;;;;;5074332;28;20305;-77
2024/01/23 00:18:46;;;;;;;5.03;1.57;;;;;;;;;;5056590;28;20207;-78
2024/01/23 00:21:12;;;;;;;4.93;1.40;;;;;;;;;;5074557;28;20179;-78
2024/01/23 00:23:38;;;;;;;5.53;1.63;;;;;;;;;;5070023;28;20192;-77
2024/01/23 00:26:04;;;;;;;3.00;1.27;;;;;;;;;;5074671;28;20199;-77
2024/01/23 00:28:30;;;;;;;4.77;1.40;;;;;;;;;;5067504;28;20276;-77
2024/01/23 00:30:56;;;;;;;4.50;1.50;;;;;;;;;;5076797;28;20229;-78
2024/01/23 00:33:22;;;;;;;5.27;1.13;;;;;;;;;;5071530;28;20195;-77
2024/01/23 00:35:48;;;;;;;4.47;1.57;;;;;;;;;;5067559;28;20171;-78
2024/01/23 00:38:14;;;;;;;2.93;1.30;;;;;;;;;;5055800;28;20203;-77
2024/01/23 00:40:40;;;;;;;8.13;1.63;;;;;;;;;;5079627;28;20215;-78
2024/01/23 00:43:06;;;;;;;2.67;1.20;;;;;;;;;;5070629;28;20583;-78
2024/01/23 00:45:32;;;;;;;3.90;1.20;;;;;;;;;;5063024;28;20202;-78
2024/01/23 00:48:00;;;;;;;3.40;1.30;;;;;;;;;;5068612;28;20210;-77
2024/01/23 00:50:26;;;;;;;7.23;1.47;;;;;;;;;;5049492;28;20574;-78
2024/01/23 00:52:52;;;;;;;4.30;1.07;;;;;;;;;;5080732;28;20671;-77
2024/01/23 00:55:18;;;;;;;3.03;1.10;;;;;;;;;;5063761;28;20282;-77
2024/01/23 00:57:44;;;;;;;6.37;1.17;;;;;;;;;;5071209;28;20210;-76
2024/01/23 01:00:10;;;;;;;2.50;1.30;;;;;;;;;;5066831;28;20320;-76
2024/01/23 01:02:36;;;;;;;4.43;1.17;;;;;;;;;;5069271;28;20207;-76
2024/01/23 01:05:02;;;;;;;5.07;1.27;;;;;;;;;;5074967;28;20284;-77
2024/01/23 01:07:28;;;;;;;3.67;0.90;;;;;;;;;;5053193;28;20206;-77
2024/01/23 01:09:55;;;;;;;5.00;1.17;;;;;;;;;;5075407;28;20209;-77
2024/01/23 01:12:21;;;;;;;3.67;1.17;;;;;;;;;;5074204;28;21901;-77
2024/01/23 01:14:47;;;;;;;1.80;0.73;;;;;;;;;;5072922;28;20615;-74
2024/01/23 01:17:13;;;;;;;3.37;1.17;;;;;;;;;;5072822;28;20733;-77
2024/01/23 01:19:39;;;;;;;3.43;1.20;;;;;;;;;;5069509;28;20606;-76
2024/01/23 01:22:05;;;;;;;4.30;1.17;;;;;;;;;;5077888;28;20210;-78
2024/01/23 01:24:32;;;;;;;3.90;1.20;;;;;;;;;;5069532;28;20632;-77
2024/01/23 01:26:58;;;;;;;2.47;1.30;;;;;;;;;;5071377;28;20265;-76
2024/01/23 01:29:24;;;;;;;7.67;2.40;;;;;;;;;;5072528;28;20211;-78
2024/01/23 01:31:50;;;;;;;3.47;1.10;;;;;;;;;;5071297;28;20289;-77
2024/01/23 01:34:16;;;;;;;1.33;0.77;;;;;;;;;;5073017;28;20265;-78
2024/01/23 01:36:42;;;;;;;6.10;1.10;;;;;;;;;;5073231;28;20349;-78
2024/01/23 01:39:11;;;;;;;4.03;1.40;;;;;;;;;;5051642;28;20278;-77
2024/01/23 01:41:37;;;;;;;2.83;1.00;;;;;;;;;;5051756;28;20557;-76
2024/01/23 01:44:03;;;;;;;4.67;1.20;;;;;;;;;;5067837;28;20214;-77
2024/01/23 01:46:30;;;;;;;5.77;1.33;;;;;;;;;;5069720;28;20207;-76
2024/01/23 01:48:56;;;;;;;3.33;0.90;;;;;;;;;;5074847;28;20245;-75
2024/01/23 01:51:24;;;;;;;8.57;2.00;;;;;;;;;;5074854;28;20171;-77
2024/01/23 01:53:50;;;;;;;2.27;0.87;;;;;;;;;;5072598;28;20211;-77
2024/01/23 01:56:17;;;;;;;3.33;0.97;;;;;;;;;;5068923;28;20203;-77
2024/01/23 01:58:43;;;;;;;2.40;0.90;;;;;;;;;;5056959;28;20334;-77
2024/01/23 02:01:10;;;;;;;4.73;1.00;;;;;;;;;;5045916;28;20202;-77
2024/01/23 02:03:36;;;;;;;4.60;1.10;;;;;;;;;;5068793;28;20207;-78
2024/01/23 02:06:03;;;;;;;6.13;1.20;;;;;;;;;;5043424;28;20176;-77
2024/01/23 02:08:29;;;;;;;3.87;1.10;;;;;;;;;;5043622;28;20210;-78
2024/01/23 02:10:56;;;;;;;2.60;0.90;;;;;;;;;;5073229;28;20294;-77
2024/01/23 02:13:23;;;;;;;2.67;1.20;;;;;;;;;;5073206;28;20202;-78
2024/01/23 02:15:49;;;;;;;2.17;1.03;;;;;;;;;;5066514;28;20279;-77
2024/01/23 02:18:15;;;;;;;1.90;0.90;;;;;;;;;;5065642;28;20187;-77
2024/01/23 02:20:41;;;;;;;1.67;0.97;;;;;;;;;;5064968;28;20171;-77
2024/01/23 02:23:17;;;;;;;5.33;1.33;;;;;;;;;;5067322;28;20694;-78
2024/01/23 02:25:44;;;;;;;3.97;1.00;;;;;;;;;;5067191;28;20198;-77
2024/01/23 02:28:10;;;;;;;3.37;0.80;;;;;;;;;;5065835;28;20582;-78
2024/01/23 02:30:36;;;;;;;2.53;1.30;;;;;;;;;;5064295;28;20203;-78
2024/01/23 02:33:06;;;;;;;4.10;1.10;;;;;;;;;;5066175;28;20224;-78
2024/01/23 02:35:32;;;;;;;3.63;1.47;;;;;;;;;;5064136;28;20207;-78
2024/01/23 02:37:58;;;;;;;1.73;0.87;;;;;;;;;;5065445;28;20360;-77
2024/01/23 02:40:25;;;;;;;5.47;1.20;;;;;;;;;;5066856;28;20221;-77
2024/01/23 02:42:51;;;;;;;2.80;1.03;;;;;;;;;;5070012;28;20217;-77
2024/01/23 02:45:17;;;;;;;4.57;1.70;;;;;;;;;;5073719;28;20258;-77
2024/01/23 02:47:43;;;;;;;3.13;1.13;;;;;;;;;;5067956;28;20341;-77
2024/01/23 02:50:09;;;;;;;1.63;1.07;;;;;;;;;;5073904;28;20640;-79
2024/01/23 02:52:35;;;;;;;2.77;1.03;;;;;;;;;;5075900;28;20272;-77
2024/01/23 02:55:02;;;;;;;1.87;1.17;;;;;;;;;;5055029;28;20712;-77
2024/01/23 02:57:28;;;;;;;3.37;1.70;;;;;;;;;;5071965;28;20262;-78
2024/01/23 02:59:54;;;;;;;2.43;1.03;;;;;;;;;;5077822;28;20308;-78
2024/01/23 03:02:20;;;;;;;3.47;1.20;;;;;;;;;;5068821;28;20681;-77
2024/01/23 03:04:46;;;;;;;4.43;1.60;;;;;;;;;;5055255;28;20661;-77
2024/01/23 03:07:13;;;;;;;4.73;1.23;;;;;;;;;;5068755;28;20208;-76
2024/01/23 03:09:39;;;;;;;8.30;1.33;;;;;;;;;;5065766;28;20206;-77
2024/01/23 03:12:15;;;;;;;5.77;1.23;;;;;;;;;;5076761;28;20186;-77
2024/01/23 03:14:42;;;;;;;2.63;0.80;;;;;;;;;;5071386;28;20275;-77
2024/01/23 03:17:08;;;;;;;4.13;1.13;;;;;;;;;;5066726;28;20270;-76
2024/01/23 03:19:34;;;;;;;2.37;0.80;;;;;;;;;;5064658;28;20203;-77
2024/01/23 03:22:00;;;;;;;3.20;1.37;;;;;;;;;;5073673;28;20217;-77
2024/01/23 03:24:26;;;;;;;1.63;0.90;;;;;;;;;;5068349;28;20214;-77
2024/01/23 03:26:52;;;;;;;4.00;1.10;;;;;;;;;;5060591;28;20665;-77
2024/01/23 03:29:18;;;;;;;2.33;1.23;;;;;;;;;;5069235;28;20213;-77
2024/01/23 03:31:44;;;;;;;4.60;1.57;;;;;;;;;;5080038;28;20198;-76
2024/01/23 03:34:10;;;;;;;6.17;1.70;;;;;;;;;;5071592;28;20302;-77
2024/01/23 03:36:36;;;;;;;7.30;1.30;;;;;;;;;;5068194;28;20215;-77
2024/01/23 03:39:02;;;;;;;3.87;1.10;;;;;;;;;;5074278;28;20664;-77
2024/01/23 03:41:29;;;;;;;2.30;0.70;;;;;;;;;;5072843;28;20295;-77
2024/01/23 03:43:55;;;;;;;5.73;1.10;;;;;;;;;;5070386;28;20214;-76
2024/01/23 03:46:21;;;;;;;3.10;0.77;;;;;;;;;;5072195;28;20203;-76
2024/01/23 03:48:47;;;;;;;4.10;1.10;;;;;;;;;;5052459;28;20268;-75
2024/01/23 03:51:13;;;;;;;3.07;1.00;;;;;;;;;;5071412;28;20178;-77
2024/01/23 03:53:39;;;;;;;1.80;0.93;;;;;;;;;;5063659;28;20207;-76
2024/01/23 03:56:05;;;;;;;2.30;0.90;;;;;;;;;;5076018;28;20715;-77
2024/01/23 03:58:31;;;;;;;9.43;1.27;;;;;;;;;;5066827;28;20207;-78
2024/01/23 04:00:59;;;;;;;2.37;1.47;;;;;;;;;;5065994;28;20203;-77
2024/01/23 04:03:26;;;;;;;2.97;1.20;;;;;;;;;;5053396;28;20199;-77
2024/01/23 04:05:51;;;;;;;1.77;0.93;;;;;;;;;;5055899;28;20177;-77
2024/01/23 04:08:18;;;;;;;4.80;0.83;;;;;;;;;;5066861;28;20203;-77
2024/01/23 04:10:44;;;;;;;4.27;0.80;;;;;;;;;;5059209;28;20221;-77
2024/01/23 04:13:10;;;;;;;3.23;1.10;;;;;;;;;;5054403;28;20588;-77
2024/01/23 04:15:36;;;;;;;1.83;1.30;;;;;;;;;;5066535;28;20207;-78
2024/01/23 04:18:02;;;;;;;2.20;0.70;;;;;;;;;;5069956;28;20625;-78
2024/01/23 04:20:28;;;;;;;5.33;1.40;;;;;;;;;;5049094;28;20381;-78
2024/01/23 04:22:55;;;;;;;4.43;1.00;;;;;;;;;;5071546;28;20211;-78
2024/01/23 04:25:21;;;;;;;2.80;1.00;;;;;;;;;;5076747;28;20214;-78
2024/01/23 04:27:47;;;;;;;5.87;1.17;;;;;;;;;;5070274;28;20268;-77
2024/01/23 04:30:13;;;;;;;3.90;0.93;;;;;;;;;;5067926;28;20179;-77
2024/01/23 04:32:41;;;;;;;5.60;1.40;;;;;;;;;;5067407;28;20214;-77
2024/01/23 04:35:07;;;;;;;3.63;1.30;;;;;;;;;;5055624;28;20229;-78
2024/01/23 04:37:33;;;;;;;6.30;1.10;;;;;;;;;;5068087;28;20222;-78
2024/01/23 04:39:59;;;;;;;2.83;1.00;;;;;;;;;;5054532;28;20753;-77
2024/01/23 04:42:25;;;;;;;3.90;1.00;;;;;;;;;;5067789;28;20195;-77
2024/01/23 04:44:51;;;;;;;4.07;1.23;;;;;;;;;;5069610;28;20179;-78
2024/01/23 04:47:18;;;;;;;5.63;1.17;;;;;;;;;;5068922;28;20207;-79
2024/01/23 04:49:44;;;;;;;3.50;1.20;;;;;;;;;;5047832;28;20222;-78
2024/01/23 04:52:10;;;;;;;2.63;1.03;;;;;;;;;;5068497;28;20209;-78
2024/01/23 04:54:36;;;;;;;4.77;1.07;;;;;;;;;;5067651;28;20214;-78
2024/01/23 04:57:02;;;;;;;9.30;1.20;;;;;;;;;;5057577;28;20663;-77
2024/01/23 04:59:28;;;;;;;4.23;1.50;;;;;;;;;;5065303;28;20211;-76
2024/01/23 05:01:54;;;;;;;4.30;1.40;;;;;;;;;;5059304;28;20405;-78
2024/01/23 05:04:20;;;;;;;3.77;1.00;;;;;;;;;;5074842;28;20656;-76
2024/01/23 05:06:46;;;;;;;3.17;1.17;;;;;;;;;;5071634;28;20202;-77
2024/01/23 05:09:12;;;;;;;2.37;0.83;;;;;;;;;;5051898;28;20199;-77
2024/01/23 05:11:38;;;;;;;3.47;1.20;;;;;;;;;;5072603;28;20653;-76
2024/01/23 05:14:04;;;;;;;2.10;0.60;;;;;;;;;;5072122;28;20218;-77
2024/01/23 05:16:30;;;;;;;3.37;1.27;;;;;;;;;;5068209;28;20257;-77
2024/01/23 05:18:56;;;;;;;1.97;0.97;;;;;;;;;;5053101;28;20725;-77
2024/01/23 05:21:22;;;;;;;5.13;1.43;;;;;;;;;;5072634;28;20179;-77
2024/01/23 05:23:48;;;;;;;2.43;0.90;;;;;;;;;;5072092;28;20864;-76
2024/01/23 05:26:14;;;;;;;8.03;1.40;;;;;;;;;;5068731;28;20203;-76
2024/01/23 05:28:40;;;;;;;2.70;0.60;;;;;;;;;;5067500;28;20215;-76
2024/01/23 05:31:06;;;;;;;7.57;1.00;;;;;;;;;;5069073;28;20214;-77
2024/01/23 05:33:32;;;;;;;3.20;1.00;;;;;;;;;;5053441;28;20214;-77
2024/01/23 05:35:58;;;;;;;2.27;1.00;;;;;;;;;;5074003;28;20217;-76
2024/01/23 05:38:24;;;;;;;5.10;0.83;;;;;;;;;;5070827;28;20209;-78
2024/01/23 05:40:50;;;;;;;2.07;1.23;;;;;;;;;;5066376;28;20369;-77
2024/01/23 05:43:16;;;;;;;5.17;1.60;;;;;;;;;;5054940;28;20211;-77
2024/01/23 05:45:42;;;;;;;5.33;1.10;;;;;;;;;;5073145;28;20242;-77
2024/01/23 05:48:08;;;;;;;2.67;0.70;;;;;;;;;;5069681;28;20202;-77
2024/01/23 05:50:34;;;;;;;4.70;0.93;;;;;;;;;;5072654;28;20254;-76
2024/01/23 05:53:00;;;;;;;3.67;1.10;;;;;;;;;;5055246;28;20211;-76
2024/01/23 05:55:26;;;;;;;7.53;1.40;;;;;;;;;;5070856;28;20218;-76
2024/01/23 05:57:52;;;;;;;6.00;1.23;;;;;;;;;;5074269;28;20214;-77
2024/01/23 06:00:18;;;;;;;2.27;0.87;;;;;;;;;;5069917;28;20194;-77
2024/01/23 06:02:44;;;;;;;4.00;1.03;;;;;;;;;;5070549;28;20657;-78
2024/01/23 06:05:11;;;;;;;3.03;0.80;;;;;;;;;;5072239;28;20215;-77
2024/01/23 06:07:43;;;;;;;8.13;1.57;;;;;;;;;;5071163;28;20324;-78
2024/01/23 06:10:09;;;;;;;3.13;1.20;;;;;;;;;;5068629;28;20207;-76
2024/01/23 06:12:35;;;;;;;4.73;1.53;;;;;;;;;;5071266;28;20914;-77
2024/01/23 06:15:01;;;;;;;6.70;1.70;;;;;;;;;;5071151;28;20182;-78
2024/01/23 06:17:27;;;;;;;8.03;1.17;;;;;;;;;;5052686;28;20766;-78
2024/01/23 06:19:53;;;;;;;4.13;1.20;;;;;;;;;;5072739;28;20555;-77
2024/01/23 06:22:19;;;;;;;4.17;1.43;;;;;;;;;;5072104;28;20297;-76
2024/01/23 06:25:01;;;;;;;8.73;1.30;;;;;;;;;;5070396;28;20247;-77
2024/01/23 06:27:27;;;;;;;4.17;1.23;;;;;;;;;;5052911;28;20182;-78
2024/01/23 06:29:53;;;;;;;7.30;1.40;;;;;;;;;;5064983;28;20615;-77
2024/01/23 06:32:19;;;;;;;5.03;1.10;;;;;;;;;;5069335;28;20206;-77
2024/01/23 06:34:45;;;;;;;5.33;1.57;;;;;;;;;;5069143;28;20608;-76
2024/01/23 06:37:11;;;;;;;3.13;0.80;;;;;;;;;;5052043;28;20211;-77
2024/01/23 06:39:39;;;;;;;3.87;1.33;;;;;;;;;;5047333;28;20719;-78
2024/01/23 06:42:05;;;;;;;4.87;1.60;;;;;;;;;;5069835;28;20263;-75
2024/01/23 06:44:31;;;;;;;3.70;1.10;;;;;;;;;;5072901;28;20310;-76
2024/01/23 06:46:57;;;;;;;8.23;1.60;;;;;;;;;;5070958;28;20215;-76
2024/01/23 06:49:23;;;;;;;2.33;1.20;;;;;;;;;;5052384;28;20762;-74
2024/01/23 06:51:49;;;;;;;6.03;1.73;;;;;;;;;;5053522;28;20203;-74
2024/01/23 06:54:15;;;;;;;6.57;0.93;;;;;;;;;;5050042;28;20233;-76
2024/01/23 06:56:41;;;;;;;3.73;1.40;;;;;;;;;;5068323;28;20195;-77
2024/01/23 06:59:08;;;;;;;5.27;1.00;;;;;;;;;;5067808;28;20242;-76
2024/01/23 07:01:34;;;;;;;5.93;1.97;;;;;;;;;;5068202;28;20455;-76
2024/01/23 07:04:00;;;;;;;4.53;1.50;;;;;;;;;;5075704;28;20207;-76
2024/01/23 07:06:26;;;;;;;2.77;1.30;;;;;;;;;;5074523;28;20209;-76
2024/01/23 07:08:53;;;;;;;3.87;1.57;;;;;;;;;;5073255;28;20700;-77
2024/01/23 07:11:20;;;;;;;8.23;1.60;;;;;;;;;;5085992;28;20282;-77
2024/01/23 07:13:46;;;;;;;6.17;2.17;;;;;;;;;;5068949;28;20214;-77
2024/01/23 07:16:12;;;;;;;7.03;1.60;;;;;;;;;;5071084;28;20599;-77
2024/01/23 07:18:38;;;;;;;9.70;2.00;;;;;;;;;;5072479;28;20225;-76
2024/01/23 07:21:04;;;;;;;6.73;1.37;;;;;;;;;;5068697;28;20210;-77
2024/01/23 07:23:30;;;;;;;7.10;1.83;;;;;;;;;;5037982;28;20605;-76
2024/01/23 07:25:58;;;;;;;6.93;1.57;;;;;;;;;;5072768;28;20211;-77
2024/01/23 07:28:24;;;;;;;5.73;1.43;;;;;;;;;;5064980;28;20210;-75
2024/01/23 07:30:50;;;;;;;5.67;1.60;;;;;;;;;;5071087;28;20327;-77
2024/01/23 07:33:16;;;;;;;7.50;2.03;;;;;;;;;;5072629;28;20206;-77
2024/01/23 07:35:42;;;;;;;4.87;1.90;;;;;;;;;;5072052;28;20233;-78
2024/01/23 07:38:10;;;;;;;7.97;2.07;;;;;;;;;;5084812;28;20240;-76
2024/01/23 07:40:39;;;;;;;7.63;1.87;;;;;;;;;;5078403;28;20215;-77
2024/01/23 07:43:05;;;;;;;9.27;1.80;;;;;;;;;;5075746;28;20240;-76
2024/01/23 07:45:31;;;;;;;2.80;1.50;;;;;;;;;;5069980;28;20643;-76
2024/01/23 07:47:57;;;;;;;10.00;2.17;;;;;;;;;;5050612;28;20199;-77
2024/01/23 07:50:23;;;;;;;12.63;1.90;;;;;;;;;;5070629;28;20277;-77
2024/01/23 07:52:49;;;;;;;8.33;2.07;;;;;;;;;;5069530;28;20219;-76
2024/01/23 07:55:16;;;;;;;5.73;1.53;;;;;;;;;;5078228;28;20580;-77
2024/01/23 07:57:42;;;;;;;4.93;2.13;;;;;;;;;;5077999;28;20268;-76
2024/01/23 08:00:09;;;;;;;8.10;1.43;;;;;;;;;;5079348;28;20175;-76
2024/01/23 08:02:35;;;;;;;10.80;2.13;;;;;;;;;;5077485;28;20218;-77
2024/01/23 08:05:01;;;;;;;6.13;1.60;;;;;;;;;;5079096;28;20211;-76
2024/01/23 08:07:27;;;;;;;4.83;1.27;;;;;;;;;;5079695;28;20202;-75
2024/01/23 08:09:53;;;;;;;7.63;1.40;;;;;;;;;;5081143;28;20218;-77
2024/01/23 08:12:19;;;;;;;5.40;1.87;;;;;;;;;;5078039;28;20213;-76
2024/01/23 08:14:45;;;;;;;3.10;1.73;;;;;;;;;;5061101;28;20598;-76
2024/01/23 08:17:11;;;;;;;2.83;1.50;;;;;;;;;;5079555;28;20703;-76
2024/01/23 08:19:39;;;;;;;5.57;1.80;;;;;;;;;;5075785;28;20785;-76
2024/01/23 08:22:06;;;;;;;11.77;2.30;;;;;;;;;;5082771;28;20263;-76
2024/01/23 08:24:32;;;;;;;3.47;1.33;;;;;;;;;;5073408;28;20217;-76
2024/01/23 08:26:58;;;;;;;6.47;2.00;;;;;;;;;;5080427;28;20183;-77
2024/01/23 08:29:24;;;;;;;7.13;1.90;;;;;;;;;;5079760;28;20588;-76
2024/01/23 08:31:50;;;;;;;8.80;1.87;;;;;;;;;;5077210;28;20217;-77
2024/01/23 08:34:16;;;;;;;6.93;2.40;;;;;;;;;;5080921;28;20210;-77
2024/01/23 08:36:42;;;;;;;4.20;2.13;;;;;;;;;;5078369;28;20207;-77
2024/01/23 08:39:08;;;;;;;7.43;1.60;;;;;;;;;;5077349;28;20637;-77
2024/01/23 08:41:34;;;;;;;6.57;1.50;;;;;;;;;;5076651;28;20203;-75
2024/01/23 08:44:00;;;;;;;4.80;1.67;;;;;;;;;;5077824;28;20710;-76
2024/01/23 08:46:26;;;;;;;8.30;1.87;;;;;;;;;;5073989;28;20714;-78
2024/01/23 08:48:52;;;;;;;7.97;1.60;;;;;;;;;;5074910;28;20256;-78
2024/01/23 08:51:18;;;;;;;5.00;1.50;;;;;;;;;;5071142;28;20247;-75
2024/01/23 08:53:44;;;;;;;8.23;1.73;;;;;;;;;;5079075;28;20329;-75
2024/01/23 08:56:10;;;;;;;6.30;1.70;;;;;;;;;;5077636;28;20318;-75
2024/01/23 08:58:36;;;;;;;6.60;1.90;;;;;;;;;;5070043;28;20223;-78
2024/01/23 09:01:02;;;;;;;7.40;1.60;;;;;;;;;;5059547;28;20206;-77
2024/01/23 09:03:28;;;;;;;7.13;1.60;;;;;;;;;;5078775;28;20230;-76
2024/01/23 09:05:54;;;;;;;11.73;2.67;;;;;;;;;;5080356;28;20178;-80
2024/01/23 09:08:20;;;;;;;10.17;1.60;;;;;;;;;;5080231;28;20306;-79
2024/01/23 09:10:49;;;;;;;5.63;1.50;;;;;;;;;;5074763;28;20704;-74
2024/01/23 09:13:15;;;;;;;11.03;2.03;;;;;;;;;;5076811;28;20273;-77
2024/01/23 09:15:41;;;;;;;8.50;1.80;;;;;;;;;;5080324;28;20230;-79
2024/01/23 09:18:07;;;;;;;2.70;1.57;;;;;;;;;;5073032;28;20190;-79
2024/01/23 09:20:33;;;;;;;5.77;1.80;;;;;;;;;;5074410;28;20207;-78
2024/01/23 09:22:59;;;;;;;9.93;2.13;;;;;;;;;;5079550;28;20223;-79
2024/01/23 09:25:25;;;;;;;10.03;2.13;;;;;;;;;;5080147;28;20206;-78
2024/01/23 09:27:51;;;;;;;5.97;1.40;;;;;;;;;;5081291;28;20217;-80
2024/01/23 09:30:18;;;;;;;6.93;1.60;;;;;;;;;;5079202;28;20182;-79
2024/01/23 09:32:44;;;;;;;7.77;2.13;;;;;;;;;;5073091;28;20690;-78
2024/01/23 09:35:14;;;;;;;8.33;1.77;;;;;;;;;;5079538;28;20646;-78
2024/01/23 09:37:40;;;;;;;5.53;1.60;;;;;;;;;;5073086;28;20203;-77
2024/01/23 09:40:10;;;;;;;7.80;1.70;;;;;;;;;;5079300;28;20209;-78
2024/01/23 09:42:39;;;;;;;7.33;1.70;;;;;;;;;;5079235;28;20265;-79
2024/01/23 09:45:10;;;;;;;12.10;1.87;;;;;;;;;;5079549;28;20186;-76
2024/01/23 09:47:36;;;;;;;14.07;2.67;;;;;;;;;;5077178;28;20284;-77
2024/01/23 09:50:03;;;;;;;12.33;2.10;;;;;;;;;;5073266;28;20214;-78
2024/01/23 09:52:30;;;;;;;6.00;1.40;;;;;;;;;;5077454;28;20209;-78
2024/01/23 09:54:56;;;;;;;4.73;1.67;;;;;;;;;;5078980;28;20301;-78
2024/01/23 09:57:22;;;;;;;7.43;1.90;;;;;;;;;;5077511;28;20257;-78
2024/01/23 09:59:48;;;;;;;6.73;2.40;;;;;;;;;;5068826;28;20245;-74
2024/01/23 10:02:14;;;;;;;8.23;1.60;;;;;;;;;;5077065;28;20214;-76
2024/01/23 10:04:42;;;;;;;12.97;2.33;;;;;;;;;;5076062;28;20249;-76
2024/01/23 10:07:08;;;;;;;7.63;1.90;;;;;;;;;;5079676;28;20718;-78
2024/01/23 10:09:34;;;;;;;9.20;2.37;;;;;;;;;;5069310;28;20223;-77
2024/01/23 10:12:00;;;;;;;10.57;2.60;;;;;;;;;;5073670;28;20261;-77
2024/01/23 10:14:26;;;;;;;7.70;1.80;;;;;;;;;;5078754;28;20297;-77
2024/01/23 10:16:52;;;;;;;10.93;2.70;;;;;;;;;;5073763;28;20220;-76
2024/01/23 10:19:18;;;;;;;7.87;2.43;;;;;;;;;;5079368;28;20212;-77
2024/01/23 10:21:44;;;;;;;5.90;1.90;;;;;;;;;;5078357;28;20206;-78
2024/01/23 10:24:10;;;;;;;6.00;1.57;;;;;;;;;;5077911;28;20199;-78
2024/01/23 10:26:36;;;;;;;5.00;2.10;;;;;;;;;;5077272;28;20529;-77
2024/01/23 10:29:02;;;;;;;7.00;2.20;;;;;;;;;;5075307;28;20219;-78
2024/01/23 10:31:29;;;;;;;4.27;1.63;;;;;;;;;;5078722;28;20659;-77
2024/01/23 10:33:56;;;;;;;8.57;2.07;;;;;;;;;;5077406;28;20590;-78
2024/01/23 10:36:22;;;;;;;10.67;2.17;;;;;;;;;;5076711;28;20166;-77
2024/01/23 10:38:50;;;;;;;7.63;2.47;;;;;;;;;;5075199;28;20179;-75
2024/01/23 10:41:18;;;;;;;9.23;2.33;;;;;;;;;;5075094;28;20218;-78
2024/01/23 10:43:46;;;;;;;9.20;1.87;;;;;;;;;;5077299;28;20214;-77
2024/01/23 10:46:13;;;;;;;6.40;2.10;;;;;;;;;;5079583;28;20213;-78
2024/01/23 10:48:39;;;;;;;7.60;1.97;;;;;;;;;;5075288;28;20422;-77
2024/01/23 10:51:25;;;;;;;8.03;1.97;;;;;;;;;;5077132;28;20186;-79
2024/01/23 10:53:57;;;;;;;7.47;1.93;;;;;;;;;;5052706;28;20564;-78
2024/01/23 10:56:24;;;;;;;9.03;2.20;;;;;;;;;;5073546;28;20711;-79
2024/01/23 10:59:00;;;;;;;8.17;2.57;;;;;;;;;;5073887;28;20206;-78
2024/01/23 11:01:27;;;;;;;9.97;2.20;;;;;;;;;;5074017;28;20202;-78
2024/01/23 11:03:53;;;;;;;8.30;2.17;;;;;;;;;;5078173;28;20298;-79
2024/01/23 11:06:22;;;;;;;9.63;2.77;;;;;;;;;;5074471;28;20166;-78
2024/01/23 11:08:51;;;;;;;6.80;1.90;;;;;;;;;;5057593;28;20197;-77
2024/01/23 11:11:25;;;;;;;11.57;2.67;;;;;;;;;;5070153;28;20208;-77
2024/01/23 11:14:04;;;;;;;6.67;2.00;;;;;;;;;;5076945;28;20210;-78
2024/01/23 11:16:30;;;;;;;9.60;1.97;;;;;;;;;;5078634;28;20217;-78
2024/01/23 11:18:56;;;;;;;7.80;2.20;;;;;;;;;;5075639;28;20219;-77
2024/01/23 11:21:25;;;;;;;9.07;2.03;;;;;;;;;;5076202;28;20207;-79
2024/01/23 11:24:01;;;;;;;6.00;1.60;;;;;;;;;;5078842;28;20578;-80
2024/01/23 11:26:27;;;;;;;9.23;2.13;;;;;;;;;;5080975;28;20208;-79
2024/01/23 11:28:54;;;;;;;5.90;1.77;;;;;;;;;;5072317;28;20241;-79
2024/01/23 11:31:29;;;;;;;18.07;2.50;;;;;;;;;;5079363;28;20272;-78
2024/01/23 11:34:15;;;;;;;8.97;2.10;;;;;;;;;;5082057;28;20764;-79
2024/01/23 11:36:41;;;;;;;10.63;2.37;;;;;;;;;;5082419;28;20211;-78
2024/01/23 11:39:14;;;;;;;16.43;2.93;;;;;;;;;;5087217;28;20359;-78
2024/01/23 11:41:47;;;;;;;9.63;2.40;;;;;;;;;;5084113;28;20262;-78
2024/01/23 11:44:13;;;;;;;9.10;3.60;;;;;;;;;;5053773;28;20238;-79
2024/01/23 11:46:40;;;;;;;9.83;2.17;;;;;;;;;;5094344;28;20210;-77
2024/01/23 11:49:07;;;;;;;8.80;2.20;;;;;;;;;;5084887;28;20216;-80
2024/01/23 11:51:36;;;;;;;17.70;6.10;;;;;;;;;;5097461;28;20228;-81
2024/01/23 11:54:05;;;;;;;16.03;5.57;;;;;;;;;;5103910;28;20210;-81
2024/01/23 11:56:31;;;;;;;13.87;2.27;;;;;;;;;;5097295;28;20218;-78
2024/01/23 11:59:00;;;;;;;8.83;1.60;;;;;;;;;;5090522;28;20207;-80
2024/01/23 12:01:27;;;;;;;16.47;4.67;;;;;;;;;;5098111;28;20244;-80
2024/01/23 12:03:54;;;;;;;14.27;3.67;;;;;;;;;;5083206;28;20219;-79
2024/01/23 12:06:22;;;;;;;10.87;3.20;;;;;;;;;;5081575;28;20184;-78
2024/01/23 12:08:48;;;;;;;16.30;4.53;;;;;;;;;;5084498;28;20194;-76
2024/01/23 12:11:15;;;;;;;8.17;2.30;;;;;;;;;;5083654;28;20198;-79
2024/01/23 12:13:43;;;;;;;11.07;2.37;;;;;;;;;;5076690;28;20631;-78
2024/01/23 12:16:09;;;;;;;9.63;2.27;;;;;;;;;;5080056;28;20298;-78
2024/01/23 12:18:35;;;;;;;12.73;2.50;;;;;;;;;;5080360;28;20206;-79
2024/01/23 12:21:03;;;;;;;10.90;2.47;;;;;;;;;;5074702;28;20228;-79
2024/01/23 12:23:29;;;;;;;12.47;2.57;;;;;;;;;;5080350;28;20233;-78
2024/01/23 12:25:56;;;;;;;6.63;2.30;;;;;;;;;;5078245;28;20465;-79
2024/01/23 12:28:23;;;;;;;7.53;2.17;;;;;;;;;;5062600;28;20298;-79
2024/01/23 12:30:49;;;;;;;6.87;2.40;;;;;;;;;;5077015;28;20210;-79
2024/01/23 12:33:19;;;;;;;10.17;2.17;;;;;;;;;;5082124;28;20198;-79
2024/01/23 12:35:45;;;;;;;11.67;2.07;;;;;;;;;;5082111;28;20325;-79
2024/01/23 12:38:14;;;;;;;10.70;3.07;;;;;;;;;;5080301;28;20298;-80
2024/01/23 12:40:40;;;;;;;10.73;2.63;;;;;;;;;;5079337;28;20216;-79
2024/01/23 12:43:07;;;;;;;11.30;2.83;;;;;;;;;;5060608;28;20223;-79
2024/01/23 12:45:33;;;;;;;5.63;1.57;;;;;;;;;;5080680;28;20282;-80
2024/01/23 12:48:00;;;;;;;8.43;1.90;;;;;;;;;;5061505;28;20645;-80
2024/01/23 12:50:26;;;;;;;21.50;3.23;;;;;;;;;;5080413;28;20202;-78
2024/01/23 12:52:53;;;;;;;11.10;2.43;;;;;;;;;;5077730;28;20354;-78
2024/01/23 12:55:20;;;;;;;12.53;2.40;;;;;;;;;;5081321;28;20227;-78
2024/01/23 12:57:45;;;;;;;11.47;2.70;;;;;;;;;;5084979;28;20213;-79
2024/01/23 13:00:13;;;;;;;10.57;3.23;;;;;;;;;;5077092;28;20529;-79
2024/01/23 13:02:39;;;;;;;8.30;2.20;;;;;;;;;;5079379;28;20209;-79
2024/01/23 13:05:06;;;;;;;6.80;1.87;;;;;;;;;;5062836;28;20222;-80
2024/01/23 13:07:32;;;;;;;5.87;2.30;;;;;;;;;;5060237;28;20210;-79
2024/01/23 13:09:59;;;;;;;10.13;1.73;;;;;;;;;;5075079;28;20222;-79
2024/01/23 13:12:25;;;;;;;8.40;2.03;;;;;;;;;;5079076;28;20175;-77
2024/01/23 13:14:51;;;;;;;11.90;2.27;;;;;;;;;;5079135;28;20306;-79
2024/01/23 13:17:19;;;;;;;13.43;3.67;;;;;;;;;;5083400;28;20234;-79
2024/01/23 13:19:45;;;;;;;13.73;3.10;;;;;;;;;;5073904;28;20233;-78
2024/01/23 13:22:11;;;;;;;11.23;2.67;;;;;;;;;;5077640;28;20239;-79
2024/01/23 13:24:37;;;;;;;10.63;2.23;;;;;;;;;;5083831;28;20217;-80
2024/01/23 13:27:06;;;;;;;5.53;1.90;;;;;;;;;;5075247;28;20182;-80
2024/01/23 13:29:36;;;;;;;10.43;2.10;;;;;;;;;;5066015;28;20218;-78
2024/01/23 13:32:02;;;;;;;8.80;2.00;;;;;;;;;;5076783;28;20906;-79
2024/01/23 13:34:29;;;;;;;14.03;2.70;;;;;;;;;;5081357;28;20260;-76
2024/01/23 13:36:55;;;;;;;16.47;2.40;;;;;;;;;;5077245;28;20213;-79
2024/01/23 13:39:22;;;;;;;11.40;2.63;;;;;;;;;;5077682;28;20547;-79
2024/01/23 13:41:48;;;;;;;10.20;2.27;;;;;;;;;;5076424;28;20179;-77
2024/01/23 13:44:14;;;;;;;8.63;1.60;;;;;;;;;;5076116;28;20444;-80
2024/01/23 13:46:41;;;;;;;9.97;2.13;;;;;;;;;;5080211;28;20275;-76
2024/01/23 13:49:08;;;;;;;9.17;2.50;;;;;;;;;;5075185;28;20245;-79
2024/01/23 13:51:34;;;;;;;8.50;2.00;;;;;;;;;;5077971;28;20725;-78
2024/01/23 13:54:00;;;;;;;9.47;2.13;;;;;;;;;;5075412;28;20203;-79
2024/01/23 13:56:26;;;;;;;9.50;1.97;;;;;;;;;;5060627;28;20212;-80
2024/01/23 13:58:52;;;;;;;13.23;2.33;;;;;;;;;;5074274;28;20202;-80
2024/01/23 14:01:19;;;;;;;10.40;3.27;;;;;;;;;;5078051;28;20206;-77
2024/01/23 14:03:45;;;;;;;11.63;2.30;;;;;;;;;;5078698;28;20220;-79
2024/01/23 14:06:11;;;;;;;13.73;2.83;;;;;;;;;;5055341;28;20179;-78
2024/01/23 14:08:42;;;;;;;11.70;2.33;;;;;;;;;;5061786;28;20581;-78
2024/01/23 14:11:09;;;;;;;12.10;2.77;;;;;;;;;;5076377;28;20211;-78
2024/01/23 14:13:36;;;;;;;7.23;2.23;;;;;;;;;;5056846;28;20791;-79
2024/01/23 14:16:02;;;;;;;13.90;2.97;;;;;;;;;;5082692;28;20222;-78
2024/01/23 14:18:28;;;;;;;19.30;2.40;;;;;;;;;;5083859;28;20182;-77
2024/01/23 14:20:54;;;;;;;8.67;2.60;;;;;;;;;;5085247;28;20213;-79
2024/01/23 14:23:20;;;;;;;9.10;2.40;;;;;;;;;;5078657;28;20210;-79
2024/01/23 14:25:46;;;;;;;7.47;2.67;;;;;;;;;;5085048;28;20697;-79
2024/01/23 14:28:12;;;;;;;11.90;2.77;;;;;;;;;;5099800;28;20352;-78
2024/01/23 14:30:38;;;;;;;11.90;2.43;;;;;;;;;;5070320;28;20207;-78
2024/01/23 14:33:05;;;;;;;7.73;2.17;;;;;;;;;;5072289;28;20264;-79
2024/01/23 14:35:31;;;;;;;13.50;2.40;;;;;;;;;;5066973;28;20209;-80
2024/01/23 14:37:58;;;;;;;8.33;1.73;;;;;;;;;;5064885;28;20242;-78